sensor_id;sensor_type;location;lat;lon;timestamp;pressure;altitude;pressure_sealevel;temperature
69545;BMP180;56766;52.260;20.746;2024-01-15T00:02:24;98187.60;;;0.50
69545;BMP180;56766;52.260;20.746;2024-01-15T00:04:51;98184.40;;;0.50
69545;BMP180;56766;52.260;20.746;2024-01-15T00:07:17;98181.00;;;0.50
69545;BMP180;56766;52.260;20.746;2024-01-15T00:09:44;98181.20;;;0.50
69545;BMP180;56766;52.260;20.746;2024-01-15T00:12:11;98167.80;;;0.50
69545;BMP180;56766;52.260;20.746;2024-01-15T00:14:37;98163.60;;;0.50
69545;BMP180;56766;52.260;20.746;2024-01-15T00:17:04;98156.20;;;0.50
69545;BMP180;56766;52.260;20.746;2024-01-15T00:19:30;98149.20;;;0.50
69545;BMP180;56766;52.260;20.746;2024-01-15T00:21:58;98148.00;;;0.50
69545;BMP180;56766;52.260;20.746;2024-01-15T00:24:25;98141.20;;;0.50
69545;BMP180;56766;52.260;20.746;2024-01-15T00:26:52;98139.40;;;0.50
69545;BMP180;56766;52.260;20.746;2024-01-15T00:29:20;98134.00;;;0.50
69545;BMP180;56766;52.260;20.746;2024-01-15T00:31:47;98135.40;;;0.50
69545;BMP180;56766;52.260;20.746;2024-01-15T00:34:13;98128.60;;;0.50
69545;BMP180;56766;52.260;20.746;2024-01-15T00:36:40;98126.80;;;0.50
69545;BMP180;56766;52.260;20.746;2024-01-15T00:39:07;98120.20;;;0.50
69545;BMP180;56766;52.260;20.746;2024-01-15T00:41:33;98118.40;;;0.50
69545;BMP180;56766;52.260;20.746;2024-01-15T00:44:00;98112.00;;;0.50
69545;BMP180;56766;52.260;20.746;2024-01-15T00:46:27;98113.40;;;0.50
69545;BMP180;56766;52.260;20.746;2024-01-15T00:48:53;98115.40;;;0.50
69545;BMP180;56766;52.260;20.746;2024-01-15T00:51:20;98108.80;;;0.50
69545;BMP180;56766;52.260;20.746;2024-01-15T00:53:47;98111.20;;;0.50
69545;BMP180;56766;52.260;20.746;2024-01-15T00:56:13;98107.40;;;0.50
69545;BMP180;56766;52.260;20.746;2024-01-15T00:58:40;98106.60;;;0.50
69545;BMP180;56766;52.260;20.746;2024-01-15T01:01:07;98101.20;;;0.50
69545;BMP180;56766;52.260;20.746;2024-01-15T01:03:33;98104.40;;;0.50
69545;BMP180;56766;52.260;20.746;2024-01-15T01:06:00;98100.40;;;0.50
69545;BMP180;56766;52.260;20.746;2024-01-15T01:08:27;98104.20;;;0.50
69545;BMP180;56766;52.260;20.746;2024-01-15T01:10:55;98096.20;;;0.50
69545;BMP180;56766;52.260;20.746;2024-01-15T01:13:22;98098.40;;;0.50
69545;BMP180;56766;52.260;20.746;2024-01-15T01:15:49;98093.60;;;0.50
69545;BMP180;56766;52.260;20.746;2024-01-15T01:18:15;98087.60;;;0.50
69545;BMP180;56766;52.260;20.746;2024-01-15T01:20:42;98086.20;;;0.50
69545;BMP180;56766;52.260;20.746;2024-01-15T01:23:09;98083.60;;;0.50
69545;BMP180;56766;52.260;20.746;2024-01-15T01:25:35;98074.60;;;0.50
69545;BMP180;56766;52.260;20.746;2024-01-15T01:28:02;98072.20;;;0.50
69545;BMP180;56766;52.260;20.746;2024-01-15T01:30:29;98071.40;;;0.50
69545;BMP180;56766;52.260;20.746;2024-01-15T01:32:56;98074.20;;;0.50
69545;BMP180;56766;52.260;20.746;2024-01-15T01:35:23;98069.00;;;0.50
69545;BMP180;56766;52.260;20.746;2024-01-15T01:37:49;98062.60;;;0.50
69545;BMP180;56766;52.260;20.746;2024-01-15T01:40:16;98059.80;;;0.50
69545;BMP180;56766;52.260;20.746;2024-01-15T01:42:43;98048.40;;;0.48
69545;BMP180;56766;52.260;20.746;2024-01-15T01:45:10;98044.60;;;0.40
69545;BMP180;56766;52.260;20.746;2024-01-15T01:47:39;98039.40;;;0.40
69545;BMP180;56766;52.260;20.746;2024-01-15T01:50:06;98043.20;;;0.40
69545;BMP180;56766;52.260;20.746;2024-01-15T01:52:35;98033.20;;;0.40
69545;BMP180;56766;52.260;20.746;2024-01-15T01:55:04;98031.60;;;0.40
69545;BMP180;56766;52.260;20.746;2024-01-15T01:57:34;98030.40;;;0.40
69545;BMP180;56766;52.260;20.746;2024-01-15T02:00:04;98032.00;;;0.40
69545;BMP180;56766;52.260;20.746;2024-01-15T02:02:32;98026.80;;;0.40
69545;BMP180;56766;52.260;20.746;2024-01-15T02:05:00;98023.60;;;0.40
69545;BMP180;56766;52.260;20.746;2024-01-15T02:07:27;98026.60;;;0.40
69545;BMP180;56766;52.260;20.746;2024-01-15T02:09:54;98027.00;;;0.40
69545;BMP180;56766;52.260;20.746;2024-01-15T02:12:21;98016.60;;;0.40
69545;BMP180;56766;52.260;20.746;2024-01-15T02:14:48;98010.20;;;0.46
69545;BMP180;56766;52.260;20.746;2024-01-15T02:17:15;97999.40;;;0.42
69545;BMP180;56766;52.260;20.746;2024-01-15T02:19:41;98002.40;;;0.44
69545;BMP180;56766;52.260;20.746;2024-01-15T02:22:08;98001.20;;;0.48
69545;BMP180;56766;52.260;20.746;2024-01-15T02:24:35;97995.60;;;0.42
69545;BMP180;56766;52.260;20.746;2024-01-15T02:27:02;97997.00;;;0.40
69545;BMP180;56766;52.260;20.746;2024-01-15T02:29:29;97986.80;;;0.42
69545;BMP180;56766;52.260;20.746;2024-01-15T02:31:55;97986.80;;;0.46
69545;BMP180;56766;52.260;20.746;2024-01-15T02:34:22;97986.80;;;0.46
69545;BMP180;56766;52.260;20.746;2024-01-15T02:36:48;97986.80;;;0.50
69545;BMP180;56766;52.260;20.746;2024-01-15T02:39:15;97982.20;;;0.42
69545;BMP180;56766;52.260;20.746;2024-01-15T02:41:42;97976.20;;;0.48
69545;BMP180;56766;52.260;20.746;2024-01-15T02:44:08;97975.00;;;0.46
69545;BMP180;56766;52.260;20.746;2024-01-15T02:46:35;97970.60;;;0.44
69545;BMP180;56766;52.260;20.746;2024-01-15T02:49:02;97967.80;;;0.40
69545;BMP180;56766;52.260;20.746;2024-01-15T02:51:29;97957.60;;;0.40
69545;BMP180;56766;52.260;20.746;2024-01-15T02:53:55;97949.00;;;0.40
69545;BMP180;56766;52.260;20.746;2024-01-15T02:56:22;97941.60;;;0.42
69545;BMP180;56766;52.260;20.746;2024-01-15T02:58:48;97932.40;;;0.40
69545;BMP180;56766;52.260;20.746;2024-01-15T03:01:19;97936.00;;;0.40
69545;BMP180;56766;52.260;20.746;2024-01-15T03:03:46;97927.80;;;0.40
69545;BMP180;56766;52.260;20.746;2024-01-15T03:06:13;97929.60;;;0.40
69545;BMP180;56766;52.260;20.746;2024-01-15T03:08:40;97927.60;;;0.40
69545;BMP180;56766;52.260;20.746;2024-01-15T03:11:06;97924.20;;;0.40
69545;BMP180;56766;52.260;20.746;2024-01-15T03:13:36;97914.00;;;0.40
69545;BMP180;56766;52.260;20.746;2024-01-15T03:16:05;97916.60;;;0.38
69545;BMP180;56766;52.260;20.746;2024-01-15T03:18:32;97914.60;;;0.38
69545;BMP180;56766;52.260;20.746;2024-01-15T03:20:59;97915.00;;;0.34
69545;BMP180;56766;52.260;20.746;2024-01-15T03:23:27;97902.80;;;0.30
69545;BMP180;56766;52.260;20.746;2024-01-15T03:25:54;97899.80;;;0.30
69545;BMP180;56766;52.260;20.746;2024-01-15T03:28:21;97898.60;;;0.30
69545;BMP180;56766;52.260;20.746;2024-01-15T03:30:47;97894.80;;;0.30
69545;BMP180;56766;52.260;20.746;2024-01-15T03:33:14;97898.00;;;0.30
69545;BMP180;56766;52.260;20.746;2024-01-15T03:35:41;97896.60;;;0.30
69545;BMP180;56766;52.260;20.746;2024-01-15T03:38:07;97893.20;;;0.30
69545;BMP180;56766;52.260;20.746;2024-01-15T03:40:34;97888.00;;;0.30
69545;BMP180;56766;52.260;20.746;2024-01-15T03:43:01;97888.00;;;0.30
69545;BMP180;56766;52.260;20.746;2024-01-15T03:45:28;97879.60;;;0.30
69545;BMP180;56766;52.260;20.746;2024-01-15T03:47:54;97870.40;;;0.30
69545;BMP180;56766;52.260;20.746;2024-01-15T03:50:21;97872.20;;;0.30
69545;BMP180;56766;52.260;20.746;2024-01-15T03:52:48;97871.00;;;0.30
69545;BMP180;56766;52.260;20.746;2024-01-15T03:55:14;97865.20;;;0.30
69545;BMP180;56766;52.260;20.746;2024-01-15T03:57:41;97866.40;;;0.30
69545;BMP180;56766;52.260;20.746;2024-01-15T04:00:08;97862.80;;;0.30
69545;BMP180;56766;52.260;20.746;2024-01-15T04:02:35;97857.40;;;0.30
69545;BMP180;56766;52.260;20.746;2024-01-15T04:05:02;97854.20;;;0.30
69545;BMP180;56766;52.260;20.746;2024-01-15T04:07:29;97850.20;;;0.30
69545;BMP180;56766;52.260;20.746;2024-01-15T04:09:55;97847.60;;;0.30
69545;BMP180;56766;52.260;20.746;2024-01-15T04:12:22;97836.40;;;0.30
69545;BMP180;56766;52.260;20.746;2024-01-15T04:14:51;97838.60;;;0.30
69545;BMP180;56766;52.260;20.746;2024-01-15T04:17:17;97837.40;;;0.30
69545;BMP180;56766;52.260;20.746;2024-01-15T04:19:44;97833.60;;;0.30
69545;BMP180;56766;52.260;20.746;2024-01-15T04:22:11;97826.40;;;0.30
69545;BMP180;56766;52.260;20.746;2024-01-15T04:24:38;97818.40;;;0.30
69545;BMP180;56766;52.260;20.746;2024-01-15T04:27:06;97813.60;;;0.30
69545;BMP180;56766;52.260;20.746;2024-01-15T04:29:33;97814.00;;;0.30
69545;BMP180;56766;52.260;20.746;2024-01-15T04:32:00;97802.80;;;0.30
69545;BMP180;56766;52.260;20.746;2024-01-15T04:34:26;97794.40;;;0.30
69545;BMP180;56766;52.260;20.746;2024-01-15T04:36:53;97792.40;;;0.30
69545;BMP180;56766;52.260;20.746;2024-01-15T04:39:20;97791.00;;;0.30
69545;BMP180;56766;52.260;20.746;2024-01-15T04:41:46;97790.40;;;0.30
69545;BMP180;56766;52.260;20.746;2024-01-15T04:44:13;97785.20;;;0.30
69545;BMP180;56766;52.260;20.746;2024-01-15T04:46:39;97779.80;;;0.30
69545;BMP180;56766;52.260;20.746;2024-01-15T04:49:06;97787.00;;;0.30
69545;BMP180;56766;52.260;20.746;2024-01-15T04:51:34;97785.00;;;0.32
69545;BMP180;56766;52.260;20.746;2024-01-15T04:54:01;97784.60;;;0.38
69545;BMP180;56766;52.260;20.746;2024-01-15T04:56:28;97773.40;;;0.38
69545;BMP180;56766;52.260;20.746;2024-01-15T04:58:54;97772.00;;;0.40
69545;BMP180;56766;52.260;20.746;2024-01-15T05:01:21;97777.20;;;0.40
69545;BMP180;56766;52.260;20.746;2024-01-15T05:03:48;97768.60;;;0.40
69545;BMP180;56766;52.260;20.746;2024-01-15T05:06:15;97771.00;;;0.38
69545;BMP180;56766;52.260;20.746;2024-01-15T05:08:42;97774.40;;;0.40
69545;BMP180;56766;52.260;20.746;2024-01-15T05:11:09;97760.60;;;0.40
69545;BMP180;56766;52.260;20.746;2024-01-15T05:13:35;97770.20;;;0.40
69545;BMP180;56766;52.260;20.746;2024-01-15T05:16:02;97758.60;;;0.40
69545;BMP180;56766;52.260;20.746;2024-01-15T05:18:29;97757.40;;;0.40
69545;BMP180;56766;52.260;20.746;2024-01-15T05:20:56;97760.40;;;0.40
69545;BMP180;56766;52.260;20.746;2024-01-15T05:23:22;97762.40;;;0.40
69545;BMP180;56766;52.260;20.746;2024-01-15T05:25:49;97767.20;;;0.40
69545;BMP180;56766;52.260;20.746;2024-01-15T05:28:16;97755.20;;;0.40
69545;BMP180;56766;52.260;20.746;2024-01-15T05:30:43;97754.40;;;0.40
69545;BMP180;56766;52.260;20.746;2024-01-15T05:33:10;97755.60;;;0.40
69545;BMP180;56766;52.260;20.746;2024-01-15T05:35:36;97755.20;;;0.40
69545;BMP180;56766;52.260;20.746;2024-01-15T05:38:03;97752.80;;;0.40
69545;BMP180;56766;52.260;20.746;2024-01-15T05:40:30;97754.00;;;0.42
69545;BMP180;56766;52.260;20.746;2024-01-15T05:42:56;97751.20;;;0.40
69545;BMP180;56766;52.260;20.746;2024-01-15T05:45:23;97755.20;;;0.40
69545;BMP180;56766;52.260;20.746;2024-01-15T05:47:50;97752.00;;;0.40
69545;BMP180;56766;52.260;20.746;2024-01-15T05:50:17;97752.60;;;0.40
69545;BMP180;56766;52.260;20.746;2024-01-15T05:52:43;97744.80;;;0.40
69545;BMP180;56766;52.260;20.746;2024-01-15T05:55:10;97741.60;;;0.40
69545;BMP180;56766;52.260;20.746;2024-01-15T05:57:36;97735.40;;;0.40
69545;BMP180;56766;52.260;20.746;2024-01-15T06:00:05;97742.20;;;0.40
69545;BMP180;56766;52.260;20.746;2024-01-15T06:02:31;97742.40;;;0.40
69545;BMP180;56766;52.260;20.746;2024-01-15T06:04:58;97732.40;;;0.40
69545;BMP180;56766;52.260;20.746;2024-01-15T06:07:25;97732.40;;;0.40
69545;BMP180;56766;52.260;20.746;2024-01-15T06:09:52;97731.60;;;0.40
69545;BMP180;56766;52.260;20.746;2024-01-15T06:12:18;97731.40;;;0.40
69545;BMP180;56766;52.260;20.746;2024-01-15T06:14:45;97730.60;;;0.40
69545;BMP180;56766;52.260;20.746;2024-01-15T06:17:11;97721.20;;;0.40
69545;BMP180;56766;52.260;20.746;2024-01-15T06:19:38;97729.80;;;0.40
69545;BMP180;56766;52.260;20.746;2024-01-15T06:22:05;97715.20;;;0.40
69545;BMP180;56766;52.260;20.746;2024-01-15T06:24:32;97714.20;;;0.34
69545;BMP180;56766;52.260;20.746;2024-01-15T06:26:58;97716.20;;;0.30
69545;BMP180;56766;52.260;20.746;2024-01-15T06:29:26;97713.20;;;0.30
69545;BMP180;56766;52.260;20.746;2024-01-15T06:31:54;97712.00;;;0.30
69545;BMP180;56766;52.260;20.746;2024-01-15T06:34:20;97710.00;;;0.30
69545;BMP180;56766;52.260;20.746;2024-01-15T06:36:47;97713.00;;;0.30
69545;BMP180;56766;52.260;20.746;2024-01-15T06:39:14;97707.80;;;0.30
69545;BMP180;56766;52.260;20.746;2024-01-15T06:41:41;97707.20;;;0.24
69545;BMP180;56766;52.260;20.746;2024-01-15T06:44:11;97702.00;;;0.28
69545;BMP180;56766;52.260;20.746;2024-01-15T06:46:43;97704.20;;;0.30
69545;BMP180;56766;52.260;20.746;2024-01-15T06:49:10;97710.80;;;0.30
69545;BMP180;56766;52.260;20.746;2024-01-15T06:51:38;97703.00;;;0.30
69545;BMP180;56766;52.260;20.746;2024-01-15T06:54:06;97703.40;;;0.30
69545;BMP180;56766;52.260;20.746;2024-01-15T06:56:33;97705.80;;;0.30
69545;BMP180;56766;52.260;20.746;2024-01-15T06:58:59;97707.80;;;0.30
69545;BMP180;56766;52.260;20.746;2024-01-15T07:01:26;97709.20;;;0.30
69545;BMP180;56766;52.260;20.746;2024-01-15T07:03:53;97706.40;;;0.30
69545;BMP180;56766;52.260;20.746;2024-01-15T07:06:20;97703.80;;;0.40
69545;BMP180;56766;52.260;20.746;2024-01-15T07:08:47;97712.40;;;0.40
69545;BMP180;56766;52.260;20.746;2024-01-15T07:11:13;97707.60;;;0.40
69545;BMP180;56766;52.260;20.746;2024-01-15T07:13:40;97706.80;;;0.40
69545;BMP180;56766;52.260;20.746;2024-01-15T07:16:07;97707.20;;;0.40
69545;BMP180;56766;52.260;20.746;2024-01-15T07:18:33;97703.20;;;0.40
69545;BMP180;56766;52.260;20.746;2024-01-15T07:21:00;97707.20;;;0.40
69545;BMP180;56766;52.260;20.746;2024-01-15T07:23:28;97707.00;;;0.40
69545;BMP180;56766;52.260;20.746;2024-01-15T07:25:54;97704.80;;;0.40
69545;BMP180;56766;52.260;20.746;2024-01-15T07:28:21;97705.00;;;0.40
69545;BMP180;56766;52.260;20.746;2024-01-15T07:30:48;97710.00;;;0.40
69545;BMP180;56766;52.260;20.746;2024-01-15T07:33:14;97706.80;;;0.40
69545;BMP180;56766;52.260;20.746;2024-01-15T07:35:41;97716.00;;;0.40
69545;BMP180;56766;52.260;20.746;2024-01-15T07:38:08;97714.00;;;0.40
69545;BMP180;56766;52.260;20.746;2024-01-15T07:40:36;97722.60;;;0.44
69545;BMP180;56766;52.260;20.746;2024-01-15T07:43:03;97715.00;;;0.50
69545;BMP180;56766;52.260;20.746;2024-01-15T07:45:30;97716.00;;;0.52
69545;BMP180;56766;52.260;20.746;2024-01-15T07:47:57;97716.20;;;0.60
69545;BMP180;56766;52.260;20.746;2024-01-15T07:50:23;97723.80;;;0.60
69545;BMP180;56766;52.260;20.746;2024-01-15T07:52:50;97722.20;;;0.66
69545;BMP180;56766;52.260;20.746;2024-01-15T07:55:17;97718.00;;;0.70
69545;BMP180;56766;52.260;20.746;2024-01-15T07:57:43;97725.60;;;0.80
69545;BMP180;56766;52.260;20.746;2024-01-15T08:00:10;97723.20;;;0.80
69545;BMP180;56766;52.260;20.746;2024-01-15T08:02:37;97726.80;;;0.80
69545;BMP180;56766;52.260;20.746;2024-01-15T08:05:05;97729.20;;;0.82
69545;BMP180;56766;52.260;20.746;2024-01-15T08:07:31;97725.80;;;0.90
69545;BMP180;56766;52.260;20.746;2024-01-15T08:09:58;97727.20;;;0.90
69545;BMP180;56766;52.260;20.746;2024-01-15T08:12:25;97731.60;;;1.00
69545;BMP180;56766;52.260;20.746;2024-01-15T08:14:51;97729.60;;;1.10
69545;BMP180;56766;52.260;20.746;2024-01-15T08:17:18;97731.40;;;1.18
69545;BMP180;56766;52.260;20.746;2024-01-15T08:19:45;97730.60;;;1.24
69545;BMP180;56766;52.260;20.746;2024-01-15T08:22:12;97729.60;;;1.40
69545;BMP180;56766;52.260;20.746;2024-01-15T08:24:39;97727.80;;;1.50
69545;BMP180;56766;52.260;20.746;2024-01-15T08:27:06;97735.80;;;1.50
69545;BMP180;56766;52.260;20.746;2024-01-15T08:29:32;97733.40;;;1.60
69545;BMP180;56766;52.260;20.746;2024-01-15T08:32:00;97734.60;;;1.70
69545;BMP180;56766;52.260;20.746;2024-01-15T08:34:27;97733.00;;;1.70
69545;BMP180;56766;52.260;20.746;2024-01-15T08:36:54;97735.80;;;1.60
69545;BMP180;56766;52.260;20.746;2024-01-15T08:39:21;97742.00;;;1.50
69545;BMP180;56766;52.260;20.746;2024-01-15T08:41:47;97745.20;;;1.50
69545;BMP180;56766;52.260;20.746;2024-01-15T08:44:14;97743.80;;;1.50
69545;BMP180;56766;52.260;20.746;2024-01-15T08:46:41;97744.60;;;1.50
69545;BMP180;56766;52.260;20.746;2024-01-15T08:49:07;97742.60;;;1.40
69545;BMP180;56766;52.260;20.746;2024-01-15T08:51:34;97739.00;;;1.40
69545;BMP180;56766;52.260;20.746;2024-01-15T08:54:01;97735.80;;;1.40
69545;BMP180;56766;52.260;20.746;2024-01-15T08:56:27;97744.60;;;1.50
69545;BMP180;56766;52.260;20.746;2024-01-15T08:58:54;97738.40;;;1.78
69545;BMP180;56766;52.260;20.746;2024-01-15T09:01:21;97736.20;;;2.10
69545;BMP180;56766;52.260;20.746;2024-01-15T09:03:47;97737.60;;;2.30
69545;BMP180;56766;52.260;20.746;2024-01-15T09:06:14;97742.20;;;2.40
69545;BMP180;56766;52.260;20.746;2024-01-15T09:08:41;97737.80;;;2.60
69545;BMP180;56766;52.260;20.746;2024-01-15T09:11:08;97733.60;;;2.80
69545;BMP180;56766;52.260;20.746;2024-01-15T09:13:35;97734.00;;;3.00
69545;BMP180;56766;52.260;20.746;2024-01-15T09:16:02;97728.60;;;3.20
69545;BMP180;56766;52.260;20.746;2024-01-15T09:18:29;97730.20;;;3.30
69545;BMP180;56766;52.260;20.746;2024-01-15T09:20:56;97725.80;;;3.20
69545;BMP180;56766;52.260;20.746;2024-01-15T09:23:23;97724.00;;;3.10
69545;BMP180;56766;52.260;20.746;2024-01-15T09:25:49;97721.60;;;3.00
69545;BMP180;56766;52.260;20.746;2024-01-15T09:28:16;97716.60;;;2.90
69545;BMP180;56766;52.260;20.746;2024-01-15T09:30:43;97720.40;;;2.90
69545;BMP180;56766;52.260;20.746;2024-01-15T09:33:11;97714.60;;;2.84
69545;BMP180;56766;52.260;20.746;2024-01-15T09:35:38;97714.60;;;2.90
69545;BMP180;56766;52.260;20.746;2024-01-15T09:38:05;97711.80;;;2.96
69545;BMP180;56766;52.260;20.746;2024-01-15T09:40:33;97708.40;;;2.90
69545;BMP180;56766;52.260;20.746;2024-01-15T09:43:02;97703.20;;;3.00
69545;BMP180;56766;52.260;20.746;2024-01-15T09:45:30;97713.60;;;3.00
69545;BMP180;56766;52.260;20.746;2024-01-15T09:47:57;97711.00;;;2.94
69545;BMP180;56766;52.260;20.746;2024-01-15T09:50:24;97700.00;;;2.92
69545;BMP180;56766;52.260;20.746;2024-01-15T09:52:52;97701.60;;;2.98
69545;BMP180;56766;52.260;20.746;2024-01-15T09:55:19;97704.20;;;3.02
69545;BMP180;56766;52.260;20.746;2024-01-15T09:57:46;97696.40;;;3.10
69545;BMP180;56766;52.260;20.746;2024-01-15T10:00:14;97699.60;;;3.16
69545;BMP180;56766;52.260;20.746;2024-01-15T10:02:43;97694.20;;;3.10
69545;BMP180;56766;52.260;20.746;2024-01-15T10:05:10;97692.00;;;3.10
69545;BMP180;56766;52.260;20.746;2024-01-15T10:07:37;97692.20;;;3.04
69545;BMP180;56766;52.260;20.746;2024-01-15T10:10:07;97692.80;;;3.00
69545;BMP180;56766;52.260;20.746;2024-01-15T10:12:34;97694.20;;;3.00
69545;BMP180;56766;52.260;20.746;2024-01-15T10:15:02;97691.00;;;3.00
69545;BMP180;56766;52.260;20.746;2024-01-15T10:17:28;97691.20;;;3.00
69545;BMP180;56766;52.260;20.746;2024-01-15T10:19:56;97699.40;;;2.90
69545;BMP180;56766;52.260;20.746;2024-01-15T10:22:23;97694.20;;;2.80
69545;BMP180;56766;52.260;20.746;2024-01-15T10:24:49;97693.60;;;2.80
69545;BMP180;56766;52.260;20.746;2024-01-15T10:27:17;97699.00;;;2.80
69545;BMP180;56766;52.260;20.746;2024-01-15T10:29:43;97684.20;;;2.90
69545;BMP180;56766;52.260;20.746;2024-01-15T10:32:11;97686.40;;;3.00
69545;BMP180;56766;52.260;20.746;2024-01-15T10:34:42;97682.60;;;3.00
69545;BMP180;56766;52.260;20.746;2024-01-15T10:37:10;97687.40;;;3.10
69545;BMP180;56766;52.260;20.746;2024-01-15T10:39:37;97693.80;;;3.10
69545;BMP180;56766;52.260;20.746;2024-01-15T10:42:05;97695.00;;;3.10
69545;BMP180;56766;52.260;20.746;2024-01-15T10:44:32;97693.40;;;3.10
69545;BMP180;56766;52.260;20.746;2024-01-15T10:46:59;97700.80;;;3.20
69545;BMP180;56766;52.260;20.746;2024-01-15T10:49:26;97696.80;;;3.34
69545;BMP180;56766;52.260;20.746;2024-01-15T10:51:54;97701.00;;;3.42
69545;BMP180;56766;52.260;20.746;2024-01-15T10:54:23;97698.20;;;3.50
69545;BMP180;56766;52.260;20.746;2024-01-15T10:56:51;97708.00;;;3.60
69545;BMP180;56766;52.260;20.746;2024-01-15T10:59:21;97706.80;;;3.60
69545;BMP180;56766;52.260;20.746;2024-01-15T11:01:53;97706.80;;;3.60
69545;BMP180;56766;52.260;20.746;2024-01-15T11:04:22;97704.00;;;3.60
69545;BMP180;56766;52.260;20.746;2024-01-15T11:06:53;97698.40;;;3.46
69545;BMP180;56766;52.260;20.746;2024-01-15T11:09:20;97696.20;;;3.30
69545;BMP180;56766;52.260;20.746;2024-01-15T11:11:52;97697.20;;;3.10
69545;BMP180;56766;52.260;20.746;2024-01-15T11:17:06;97690.80;;;3.10
69545;BMP180;56766;52.260;20.746;2024-01-15T11:25:13;97689.40;;;3.10
69545;BMP180;56766;52.260;20.746;2024-01-15T11:27:42;97687.00;;;3.10
69545;BMP180;56766;52.260;20.746;2024-01-15T11:30:14;97683.60;;;3.10
69545;BMP180;56766;52.260;20.746;2024-01-15T11:32:41;97678.40;;;3.00
69545;BMP180;56766;52.260;20.746;2024-01-15T11:35:10;97677.40;;;2.98
69545;BMP180;56766;52.260;20.746;2024-01-15T11:40:44;97679.20;;;2.70
69545;BMP180;56766;52.260;20.746;2024-01-15T11:43:12;97674.80;;;2.60
69545;BMP180;56766;52.260;20.746;2024-01-15T11:45:41;97675.00;;;2.72
69545;BMP180;56766;52.260;20.746;2024-01-15T11:48:14;97671.80;;;2.90
69545;BMP180;56766;52.260;20.746;2024-01-15T11:50:50;97666.20;;;3.00
69545;BMP180;56766;52.260;20.746;2024-01-15T11:53:28;97666.40;;;2.90
69545;BMP180;56766;52.260;20.746;2024-01-15T11:55:59;97660.80;;;2.90
69545;BMP180;56766;52.260;20.746;2024-01-15T11:58:28;97671.20;;;2.90
69545;BMP180;56766;52.260;20.746;2024-01-15T12:00:55;97673.80;;;2.80
69545;BMP180;56766;52.260;20.746;2024-01-15T12:03:23;97672.40;;;2.90
69545;BMP180;56766;52.260;20.746;2024-01-15T12:05:52;97671.80;;;2.80
69545;BMP180;56766;52.260;20.746;2024-01-15T12:08:23;97667.20;;;2.70
69545;BMP180;56766;52.260;20.746;2024-01-15T12:10:51;97665.80;;;2.52
69545;BMP180;56766;52.260;20.746;2024-01-15T12:13:18;97664.60;;;2.60
69545;BMP180;56766;52.260;20.746;2024-01-15T12:15:47;97659.20;;;2.80
69545;BMP180;56766;52.260;20.746;2024-01-15T12:18:18;97659.80;;;2.88
69545;BMP180;56766;52.260;20.746;2024-01-15T12:20:46;97658.00;;;2.78
69545;BMP180;56766;52.260;20.746;2024-01-15T12:23:16;97672.60;;;2.62
69545;BMP180;56766;52.260;20.746;2024-01-15T12:25:43;97677.60;;;2.44
69545;BMP180;56766;52.260;20.746;2024-01-15T12:28:12;97680.80;;;2.20
69545;BMP180;56766;52.260;20.746;2024-01-15T12:30:39;97675.40;;;2.00
69545;BMP180;56766;52.260;20.746;2024-01-15T12:33:07;97675.00;;;1.90
69545;BMP180;56766;52.260;20.746;2024-01-15T12:35:35;97673.60;;;1.80
69545;BMP180;56766;52.260;20.746;2024-01-15T12:38:03;97674.40;;;1.80
69545;BMP180;56766;52.260;20.746;2024-01-15T12:40:32;97670.40;;;1.70
69545;BMP180;56766;52.260;20.746;2024-01-15T12:43:01;97664.80;;;1.62
69545;BMP180;56766;52.260;20.746;2024-01-15T12:45:29;97659.60;;;1.68
69545;BMP180;56766;52.260;20.746;2024-01-15T12:47:57;97665.60;;;1.62
69545;BMP180;56766;52.260;20.746;2024-01-15T12:50:25;97659.60;;;1.60
69545;BMP180;56766;52.260;20.746;2024-01-15T12:52:54;97660.60;;;1.60
69545;BMP180;56766;52.260;20.746;2024-01-15T12:55:24;97668.00;;;1.60
69545;BMP180;56766;52.260;20.746;2024-01-15T12:57:51;97677.00;;;1.60
69545;BMP180;56766;52.260;20.746;2024-01-15T13:00:20;97687.00;;;1.58
69545;BMP180;56766;52.260;20.746;2024-01-15T13:02:48;97689.40;;;1.50
69545;BMP180;56766;52.260;20.746;2024-01-15T13:05:17;97683.40;;;1.44
69545;BMP180;56766;52.260;20.746;2024-01-15T13:07:44;97688.80;;;1.40
69545;BMP180;56766;52.260;20.746;2024-01-15T13:10:12;97689.20;;;1.36
69545;BMP180;56766;52.260;20.746;2024-01-15T13:12:40;97692.00;;;1.30
69545;BMP180;56766;52.260;20.746;2024-01-15T13:15:07;97687.20;;;1.30
69545;BMP180;56766;52.260;20.746;2024-01-15T13:17:39;97684.40;;;1.20
69545;BMP180;56766;52.260;20.746;2024-01-15T13:20:08;97689.20;;;1.20
69545;BMP180;56766;52.260;20.746;2024-01-15T13:22:37;97689.80;;;1.18
69545;BMP180;56766;52.260;20.746;2024-01-15T13:25:07;97691.00;;;1.10
69545;BMP180;56766;52.260;20.746;2024-01-15T13:27:35;97690.80;;;1.10
69545;BMP180;56766;52.260;20.746;2024-01-15T13:30:02;97689.00;;;1.18
69545;BMP180;56766;52.260;20.746;2024-01-15T13:32:29;97678.60;;;1.20
69545;BMP180;56766;52.260;20.746;2024-01-15T13:35:00;97680.20;;;1.20
69545;BMP180;56766;52.260;20.746;2024-01-15T13:37:28;97679.80;;;1.20
69545;BMP180;56766;52.260;20.746;2024-01-15T13:39:56;97677.20;;;1.30
69545;BMP180;56766;52.260;20.746;2024-01-15T13:42:23;97676.40;;;1.30
69545;BMP180;56766;52.260;20.746;2024-01-15T13:44:49;97673.20;;;1.30
69545;BMP180;56766;52.260;20.746;2024-01-15T13:47:16;97675.40;;;1.28
69545;BMP180;56766;52.260;20.746;2024-01-15T13:49:43;97675.20;;;1.20
69545;BMP180;56766;52.260;20.746;2024-01-15T13:52:09;97676.00;;;1.20
69545;BMP180;56766;52.260;20.746;2024-01-15T13:54:36;97676.00;;;1.20
69545;BMP180;56766;52.260;20.746;2024-01-15T13:57:03;97676.20;;;1.20
69545;BMP180;56766;52.260;20.746;2024-01-15T13:59:32;97679.00;;;1.10
69545;BMP180;56766;52.260;20.746;2024-01-15T14:01:59;97682.40;;;1.10
69545;BMP180;56766;52.260;20.746;2024-01-15T14:04:26;97678.00;;;1.10
69545;BMP180;56766;52.260;20.746;2024-01-15T14:06:53;97680.00;;;1.10
69545;BMP180;56766;52.260;20.746;2024-01-15T14:09:20;97675.40;;;1.10
69545;BMP180;56766;52.260;20.746;2024-01-15T14:11:49;97681.80;;;1.10
69545;BMP180;56766;52.260;20.746;2024-01-15T14:14:15;97678.60;;;1.04
69545;BMP180;56766;52.260;20.746;2024-01-15T14:16:43;97687.60;;;1.00
69545;BMP180;56766;52.260;20.746;2024-01-15T14:19:10;97686.40;;;1.00
69545;BMP180;56766;52.260;20.746;2024-01-15T14:21:36;97681.20;;;0.90